Detall de PIREP

Printer-friendly versionPDF version

[2011/07/01 08:30:00]
Flight IATA:CT1005
Pilot Number:011
Company ICAO:CAT
Aircraft Type:F28/A
PAX:85
Departing Airport: ELLX
Destination Airport: EICK
Alternate Airport:EIDW
Online: VATSIM
Route:DIK UN852 LNO/N0223F190 L607 GILOM M624 BUB/N0250F280 UL608 DENUT UL610 KOPUL/N0238F240 L610 GILDA/N0250F280 UL610 LAM UL179 CPT UL9 STU UL175 BANBA VAPAL
Flight Level:F280
No Slew and time accel
No pause
Crash detect
Detect pilot in Cockpit between each 30 and 45 minutes
08:30 Zero fuel Weight: 59156 Lbs, Fuel Weight: 13606 Lbs
08:30 VATSIM:ELLX 010750Z 32007G18KT 270V020 9999 FEW025 15/08 Q1023 NOSIG
08:30 VATSIM:EICK 010800Z 32004KT 290V350 9999 FEW030 BKN160 12/09 Q1028 NOSIG
08:38 Parking Brakes off
08:44 Take-off
08:44 Take off Weight: 72247 Lbs
08:44 Wind: 331º @ 006 Knots Heading: 243º
08:44 POS N49º 37´ 39´´ E006º 12´ 51´´
08:44 Gear Up: 158 Knots
08:44 Flaps:2 at 158 Knots
08:45 Flaps:1 at 214 Knots
08:45 Flaps:0 at 217 Knots
08:59 Wind:304º@022 Knots Heading: 337º Ground Speed: 372 Knots Altitude 19320 ft
09:11 TOC
09:11 Fuel Weight: 10278 Lb
09:14 Wind:316º@027 Knots Heading: 287º Ground Speed: 426 Knots Altitude 28343 ft
09:29 Wind:321º@020 Knots Heading: 281º Ground Speed: 446 Knots Altitude 28382 ft
09:44 Wind:317º@012 Knots Heading: 283º Ground Speed: 450 Knots Altitude 28431 ft
09:59 Wind:285º@012 Knots Heading: 266º Ground Speed: 450 Knots Altitude 28208 ft
09:59 TOD
09:59 Fuel Weight: 6090 Lb
10:14 Wind:171º@010 Knots Heading: 222º Ground Speed: 248 Knots Altitude 5813 ft
10:19 Flaps:1 at 219 Knots
10:19 Flaps:2 at 204 Knots
10:21 Flaps:3 at 176 Knots
10:21 Gear Down: 173 Knots
10:22 Flaps:4 at 162 Knots
10:22 Flaps:5 at 143 Knots
10:24 Gear Up: 133 Knots
10:24 Gear Down: 134 Knots
10:25 TouchDown:Rate -119 ft/min Speed: 116 Knots
10:25 VATSIM:EICK 011000Z 17005KT 140V210 9999 FEW018CB BKN020 14/09 Q1028 NOSIG
10:25 Land
10:25 Wind:178º@005 Knots
10:25 Heading: 340º
10:25 Flight Duration: 01:41
10:25 Landing Weight: 63838 Lbs
10:25 POS N51º 50´ 39´´ W008º 29´ 34´´
10:26 Parking brakes on
10:26 Block to Block Duration: 01:48
10:26 Final Fuel: 4638 Lbls
10:26 Spent Fuel: 8968 Lbls
10:26 Flight Length: 254 NM
10:26 TOD Land Length: 42 NM

Exportar CSV

Powered by Drupal - Modified by Danger4k